sensor_id;sensor_type;location;lat;lon;timestamp;pressure;altitude;pressure_sealevel;temperature;humidity
11223;BME280;5668;52.012;8.724;2023-10-13T00:00:26;99836.34;;;18.44;100.00
11223;BME280;5668;52.012;8.724;2023-10-13T00:02:56;99831.25;;;18.43;100.00
11223;BME280;5668;52.012;8.724;2023-10-13T00:05:27;99839.81;;;18.45;100.00
11223;BME280;5668;52.012;8.724;2023-10-13T00:07:56;99828.97;;;18.48;100.00
11223;BME280;5668;52.012;8.724;2023-10-13T00:10:27;99832.56;;;18.47;100.00
11223;BME280;5668;52.012;8.724;2023-10-13T00:12:54;99827.31;;;18.47;100.00
11223;BME280;5668;52.012;8.724;2023-10-13T00:15:31;99827.97;;;18.49;100.00
11223;BME280;5668;52.012;8.724;2023-10-13T00:18:05;99828.97;;;18.48;100.00
11223;BME280;5668;52.012;8.724;2023-10-13T00:20:40;99827.97;;;18.49;100.00
11223;BME280;5668;52.012;8.724;2023-10-13T00:23:12;99822.72;;;18.49;100.00
11223;BME280;5668;52.012;8.724;2023-10-13T00:25:40;99819.88;;;18.50;100.00
11223;BME280;5668;52.012;8.724;2023-10-13T00:28:15;99817.44;;;18.49;100.00
11223;BME280;5668;52.012;8.724;2023-10-13T00:30:49;99811.53;;;18.47;100.00
11223;BME280;5668;52.012;8.724;2023-10-13T00:33:18;99814.81;;;18.49;100.00
11223;BME280;5668;52.012;8.724;2023-10-13T00:35:47;99811.16;;;18.50;100.00
11223;BME280;5668;52.012;8.724;2023-10-13T00:38:17;99809.53;;;18.49;100.00
11223;BME280;5668;52.012;8.724;2023-10-13T00:40:45;99804.09;;;18.50;100.00
11223;BME280;5668;52.012;8.724;2023-10-13T00:43:19;99819.06;;;18.50;100.00
11223;BME280;5668;52.012;8.724;2023-10-13T00:46:02;99805.91;;;18.50;100.00
11223;BME280;5668;52.012;8.724;2023-10-13T00:48:36;99805.91;;;18.50;100.00
11223;BME280;5668;52.012;8.724;2023-10-13T00:51:19;99811.16;;;18.50;100.00
11223;BME280;5668;52.012;8.724;2023-10-13T00:53:59;99811.53;;;18.47;100.00
11223;BME280;5668;52.012;8.724;2023-10-13T00:56:29;99807.09;;;18.47;100.00
11223;BME280;5668;52.012;8.724;2023-10-13T00:58:56;99807.53;;;18.51;100.00
11223;BME280;5668;52.012;8.724;2023-10-13T01:01:28;99799.03;;;18.49;100.00
11223;BME280;5668;52.012;8.724;2023-10-13T01:03:56;99798.66;;;18.52;100.00
11223;BME280;5668;52.012;8.724;2023-10-13T01:06:27;99795.88;;;18.53;100.00
11223;BME280;5668;52.012;8.724;2023-10-13T01:08:58;99797.50;;;18.54;100.00
11223;BME280;5668;52.012;8.724;2023-10-13T01:11:37;99792.25;;;18.54;100.00
11223;BME280;5668;52.012;8.724;2023-10-13T01:14:04;99782.53;;;18.55;100.00
11223;BME280;5668;52.012;8.724;2023-10-13T01:16:32;99788.03;;;19.07;100.00
11223;BME280;5668;52.012;8.724;2023-10-13T01:18:58;99776.84;;;18.82;100.00
11223;BME280;5668;52.012;8.724;2023-10-13T01:21:32;99774.41;;;18.73;100.00
11223;BME280;5668;52.012;8.724;2023-10-13T01:24:01;99774.78;;;18.70;100.00
11223;BME280;5668;52.012;8.724;2023-10-13T01:26:34;99766.88;;;18.70;100.00
11223;BME280;5668;52.012;8.724;2023-10-13T01:29:05;99758.97;;;18.70;100.00
11223;BME280;5668;52.012;8.724;2023-10-13T01:31:39;99758.97;;;18.70;100.00
11223;BME280;5668;52.012;8.724;2023-10-13T01:34:12;99759.78;;;18.70;100.00
11223;BME280;5668;52.012;8.724;2023-10-13T01:36:40;99758.16;;;18.69;100.00
11223;BME280;5668;52.012;8.724;2023-10-13T01:39:09;99759.44;;;18.73;100.00
11223;BME280;5668;52.012;8.724;2023-10-13T01:41:42;99756.50;;;19.22;100.00
11223;BME280;5668;52.012;8.724;2023-10-13T01:44:09;99760.28;;;18.97;100.00
11223;BME280;5668;52.012;8.724;2023-10-13T01:46:38;99758.22;;;18.84;100.00
11223;BME280;5668;52.012;8.724;2023-10-13T01:49:04;99757.94;;;18.79;100.00
11223;BME280;5668;52.012;8.724;2023-10-13T01:51:33;99742.66;;;18.74;100.00
11223;BME280;5668;52.012;8.724;2023-10-13T01:54:00;99742.00;;;18.72;100.00
11223;BME280;5668;52.012;8.724;2023-10-13T01:56:30;99739.56;;;18.71;100.00
11223;BME280;5668;52.012;8.724;2023-10-13T01:58:57;99735.28;;;18.70;100.00
11223;BME280;5668;52.012;8.724;2023-10-13T02:01:24;99737.09;;;18.69;100.00
11223;BME280;5668;52.012;8.724;2023-10-13T02:03:55;99737.09;;;18.69;100.00
11223;BME280;5668;52.012;8.724;2023-10-13T02:06:28;99733.81;;;18.67;100.00
11223;BME280;5668;52.012;8.724;2023-10-13T02:09:00;99728.53;;;18.67;100.00
11223;BME280;5668;52.012;8.724;2023-10-13T02:11:38;99726.72;;;18.68;100.00
11223;BME280;5668;52.012;8.724;2023-10-13T02:14:05;99732.66;;;18.70;100.00
11223;BME280;5668;52.012;8.724;2023-10-13T02:16:31;99736.28;;;18.69;100.00
11223;BME280;5668;52.012;8.724;2023-10-13T02:18:58;99731.00;;;18.69;100.00
11223;BME280;5668;52.012;8.724;2023-10-13T02:21:30;99722.28;;;18.68;100.00
11223;BME280;5668;52.012;8.724;2023-10-13T02:23:58;99723.28;;;18.67;100.00
11223;BME280;5668;52.012;8.724;2023-10-13T02:26:30;99720.81;;;18.66;100.00
11223;BME280;5668;52.012;8.724;2023-10-13T02:29:01;99718.38;;;18.64;100.00
11223;BME280;5668;52.012;8.724;2023-10-13T02:31:29;99710.47;;;18.64;100.00
11223;BME280;5668;52.012;8.724;2023-10-13T02:33:56;99707.84;;;18.64;100.00
11223;BME280;5668;52.012;8.724;2023-10-13T02:36:23;99710.28;;;18.66;100.00
11223;BME280;5668;52.012;8.724;2023-10-13T02:39:03;99707.84;;;18.64;100.00
11223;BME280;5668;52.012;8.724;2023-10-13T02:41:34;99702.91;;;18.61;100.00
11223;BME280;5668;52.012;8.724;2023-10-13T02:44:05;99693.66;;;18.65;100.00
11223;BME280;5668;52.012;8.724;2023-10-13T02:46:32;99702.22;;;18.67;100.00
11223;BME280;5668;52.012;8.724;2023-10-13T02:49:02;99692.69;;;18.66;100.00
11223;BME280;5668;52.012;8.724;2023-10-13T02:51:35;99690.03;;;18.66;100.00
11223;BME280;5668;52.012;8.724;2023-10-13T02:54:03;99683.97;;;18.66;100.00
11223;BME280;5668;52.012;8.724;2023-10-13T02:56:36;99678.69;;;18.66;100.00
11223;BME280;5668;52.012;8.724;2023-10-13T02:59:05;99684.78;;;18.66;100.00
11223;BME280;5668;52.012;8.724;2023-10-13T03:04:07;99674.25;;;18.66;100.00
11223;BME280;5668;52.012;8.724;2023-10-13T03:06:35;99668.53;;;18.63;100.00
11223;BME280;5668;52.012;8.724;2023-10-13T03:09:04;99667.00;;;18.68;100.00
11223;BME280;5668;52.012;8.724;2023-10-13T03:11:40;99661.56;;;18.70;100.00
11223;BME280;5668;52.012;8.724;2023-10-13T03:14:15;99666.66;;;18.71;100.00
11223;BME280;5668;52.012;8.724;2023-10-13T03:16:50;99662.41;;;18.70;100.00
11223;BME280;5668;52.012;8.724;2023-10-13T03:19:17;99659.38;;;18.73;100.00
11223;BME280;5668;52.012;8.724;2023-10-13T03:21:45;99666.31;;;18.74;100.00
11223;BME280;5668;52.012;8.724;2023-10-13T03:24:21;99656.91;;;18.94;100.00
11223;BME280;5668;52.012;8.724;2023-10-13T03:26:59;99657.19;;;18.85;100.00
11223;BME280;5668;52.012;8.724;2023-10-13T03:29:36;99651.09;;;18.84;100.00
11223;BME280;5668;52.012;8.724;2023-10-13T03:32:05;99645.81;;;18.84;100.00
11223;BME280;5668;52.012;8.724;2023-10-13T03:34:38;99639.75;;;18.84;100.00
11223;BME280;5668;52.012;8.724;2023-10-13T03:37:15;99645.81;;;18.84;100.00
11223;BME280;5668;52.012;8.724;2023-10-13T03:39:45;99639.75;;;18.84;100.00
11223;BME280;5668;52.012;8.724;2023-10-13T03:42:12;99639.56;;;18.85;100.00
11223;BME280;5668;52.012;8.724;2023-10-13T03:44:46;99643.47;;;18.89;100.00
11223;BME280;5668;52.012;8.724;2023-10-13T03:47:14;99631.78;;;18.92;100.00
11223;BME280;5668;52.012;8.724;2023-10-13T03:49:53;99630.75;;;19.16;100.00
11223;BME280;5668;52.012;8.724;2023-10-13T03:52:41;99622.44;;;19.04;100.00
11223;BME280;5668;52.012;8.724;2023-10-13T03:55:08;99623.63;;;19.02;100.00
11223;BME280;5668;52.012;8.724;2023-10-13T03:57:43;99621.34;;;18.99;100.00
11223;BME280;5668;52.012;8.724;2023-10-13T04:00:14;99611.16;;;18.95;100.00
11223;BME280;5668;52.012;8.724;2023-10-13T04:02:47;99610.72;;;18.92;100.00
11223;BME280;5668;52.012;8.724;2023-10-13T04:05:20;99607.91;;;18.93;100.00
11223;BME280;5668;52.012;8.724;2023-10-13T04:08:02;99611.53;;;18.92;100.00
11223;BME280;5668;52.012;8.724;2023-10-13T04:10:47;99603.31;;;18.87;100.00
11223;BME280;5668;52.012;8.724;2023-10-13T04:13:28;99611.88;;;18.89;100.00
11223;BME280;5668;52.012;8.724;2023-10-13T04:16:14;99596.06;;;18.89;100.00
11223;BME280;5668;52.012;8.724;2023-10-13T04:19:00;99597.06;;;18.88;100.00
11223;BME280;5668;52.012;8.724;2023-10-13T04:21:35;99588.81;;;18.91;100.00
11223;BME280;5668;52.012;8.724;2023-10-13T04:24:25;99582.91;;;18.89;100.00
11223;BME280;5668;52.012;8.724;2023-10-13T04:27:09;99582.38;;;18.94;100.00
11223;BME280;5668;52.012;8.724;2023-10-13T04:29:56;99584.19;;;18.93;100.00
11223;BME280;5668;52.012;8.724;2023-10-13T04:32:37;99570.38;;;18.91;100.00
11223;BME280;5668;52.012;8.724;2023-10-13T04:35:28;99569.41;;;18.92;100.00
11223;BME280;5668;52.012;8.724;2023-10-13T04:38:01;99566.59;;;18.94;100.00
11223;BME280;5668;52.012;8.724;2023-10-13T04:40:44;99571.66;;;18.95;100.00
11223;BME280;5668;52.012;8.724;2023-10-13T04:43:25;99562.13;;;18.94;100.00
11223;BME280;5668;52.012;8.724;2023-10-13T04:46:20;99561.31;;;18.94;100.00
11223;BME280;5668;52.012;8.724;2023-10-13T04:48:52;99553.59;;;18.92;100.00
11223;BME280;5668;52.012;8.724;2023-10-13T04:51:26;99560.50;;;18.93;100.00
11223;BME280;5668;52.012;8.724;2023-10-13T04:54:15;99549.75;;;18.95;100.00
11223;BME280;5668;52.012;8.724;2023-10-13T04:56:52;99550.59;;;18.95;100.00
11223;BME280;5668;52.012;8.724;2023-10-13T04:59:36;99541.88;;;18.95;100.00
11223;BME280;5668;52.012;8.724;2023-10-13T05:02:24;99544.31;;;18.97;100.00
11223;BME280;5668;52.012;8.724;2023-10-13T05:05:22;99541.88;;;18.95;100.00
11223;BME280;5668;52.012;8.724;2023-10-13T05:08:11;99530.72;;;18.93;100.00
11223;BME280;5668;52.012;8.724;2023-10-13T05:10:56;99532.53;;;18.92;100.00
11223;BME280;5668;52.012;8.724;2023-10-13T05:13:37;99531.88;;;18.90;100.00
11223;BME280;5668;52.012;8.724;2023-10-13T05:16:22;99529.91;;;18.92;100.00
11223;BME280;5668;52.012;8.724;2023-10-13T05:19:06;99530.06;;;18.91;100.00
11223;BME280;5668;52.012;8.724;2023-10-13T05:21:53;99527.59;;;18.89;100.00
11223;BME280;5668;52.012;8.724;2023-10-13T05:24:49;99521.09;;;18.85;100.00
11223;BME280;5668;52.012;8.724;2023-10-13T05:27:33;99522.91;;;18.85;100.00
11223;BME280;5668;52.012;8.724;2023-10-13T05:30:18;99521.91;;;18.86;100.00
11223;BME280;5668;52.012;8.724;2023-10-13T05:33:03;99507.91;;;18.85;100.00
11223;BME280;5668;52.012;8.724;2023-10-13T05:35:48;99483.84;;;18.88;100.00
11223;BME280;5668;52.012;8.724;2023-10-13T05:38:34;99489.09;;;18.88;100.00
11223;BME280;5668;52.012;8.724;2023-10-13T05:41:19;99483.84;;;18.88;100.00
11223;BME280;5668;52.012;8.724;2023-10-13T05:44:04;99499.28;;;18.91;100.00
11223;BME280;5668;52.012;8.724;2023-10-13T05:46:49;99495.19;;;18.89;100.00
11223;BME280;5668;52.012;8.724;2023-10-13T05:49:27;99464.41;;;18.89;100.00
11223;BME280;5668;52.012;8.724;2023-10-13T05:52:11;99466.06;;;18.90;100.00
11223;BME280;5668;52.012;8.724;2023-10-13T05:55:07;99460.78;;;18.90;100.00
11223;BME280;5668;52.012;8.724;2023-10-13T05:57:52;99450.25;;;18.90;100.00
11223;BME280;5668;52.012;8.724;2023-10-13T06:00:41;99452.53;;;18.93;100.00
11223;BME280;5668;52.012;8.724;2023-10-13T06:03:25;99437.72;;;18.92;100.00
11223;BME280;5668;52.012;8.724;2023-10-13T06:06:10;99447.28;;;18.93;100.00
11223;BME280;5668;52.012;8.724;2023-10-13T06:08:55;99442.81;;;18.94;100.00
11223;BME280;5668;52.012;8.724;2023-10-13T06:11:41;99444.00;;;18.91;100.00
11223;BME280;5668;52.012;8.724;2023-10-13T06:14:26;99440.97;;;18.94;100.00
11223;BME280;5668;52.012;8.724;2023-10-13T06:17:11;99446.25;;;18.94;100.00
11223;BME280;5668;52.012;8.724;2023-10-13T06:19:55;99447.88;;;18.95;100.00
11223;BME280;5668;52.012;8.724;2023-10-13T06:22:40;99434.09;;;18.93;100.00
11223;BME280;5668;52.012;8.724;2023-10-13T06:25:25;99439.81;;;18.97;100.00
11223;BME280;5668;52.012;8.724;2023-10-13T06:28:11;99433.38;;;19.00;100.00
11223;BME280;5668;52.012;8.724;2023-10-13T06:30:57;99436.34;;;18.97;100.00
11223;BME280;5668;52.012;8.724;2023-10-13T06:33:26;99430.09;;;18.98;100.00
11223;BME280;5668;52.012;8.724;2023-10-13T06:35:56;99433.72;;;18.97;100.00
11223;BME280;5668;52.012;8.724;2023-10-13T06:38:24;99426.47;;;18.99;100.00
11223;BME280;5668;52.012;8.724;2023-10-13T06:40:57;99414.28;;;18.98;100.00
11223;BME280;5668;52.012;8.724;2023-10-13T06:43:25;99422.84;;;19.00;100.00
11223;BME280;5668;52.012;8.724;2023-10-13T06:46:00;99420.38;;;18.98;100.00
11223;BME280;5668;52.012;8.724;2023-10-13T06:48:27;99426.09;;;19.02;100.00
11223;BME280;5668;52.012;8.724;2023-10-13T06:50:59;99412.94;;;19.02;100.00
11223;BME280;5668;52.012;8.724;2023-10-13T06:53:30;99405.47;;;19.05;100.00
11223;BME280;5668;52.012;8.724;2023-10-13T06:56:05;99401.03;;;19.06;100.00
11223;BME280;5668;52.012;8.724;2023-10-13T06:58:34;99402.66;;;19.07;100.00
11223;BME280;5668;52.012;8.724;2023-10-13T07:01:06;99399.38;;;19.05;100.00
11223;BME280;5668;52.012;8.724;2023-10-13T07:03:33;99395.94;;;19.04;100.00
11223;BME280;5668;52.012;8.724;2023-10-13T07:06:00;99401.47;;;19.09;100.00
11223;BME280;5668;52.012;8.724;2023-10-13T07:08:27;99407.53;;;19.10;100.00
11223;BME280;5668;52.012;8.724;2023-10-13T07:10:57;99396.56;;;19.06;100.00
11223;BME280;5668;52.012;8.724;2023-10-13T07:13:32;99405.28;;;19.07;100.00
11223;BME280;5668;52.012;8.724;2023-10-13T07:16:05;99402.91;;;19.12;100.00
11223;BME280;5668;52.012;8.724;2023-10-13T07:18:33;99407.19;;;19.13;100.00
11223;BME280;5668;52.012;8.724;2023-10-13T07:21:04;99418.19;;;19.16;100.00
11223;BME280;5668;52.012;8.724;2023-10-13T07:23:36;99407.53;;;19.10;100.00
11223;BME280;5668;52.012;8.724;2023-10-13T07:26:04;99398.47;;;19.12;100.00
11223;BME280;5668;52.012;8.724;2023-10-13T07:28:35;99397.94;;;19.17;100.00
11223;BME280;5668;52.012;8.724;2023-10-13T07:31:11;99401.81;;;19.21;100.00
11223;BME280;5668;52.012;8.724;2023-10-13T07:33:39;99384.19;;;19.21;100.00
11223;BME280;5668;52.012;8.724;2023-10-13T07:36:09;99380.56;;;19.58;100.00
11223;BME280;5668;52.012;8.724;2023-10-13T07:38:43;99392.47;;;19.40;100.00
11223;BME280;5668;52.012;8.724;2023-10-13T07:41:14;99385.16;;;19.35;100.00
11223;BME280;5668;52.012;8.724;2023-10-13T07:43:44;99382.91;;;19.32;100.00
11223;BME280;5668;52.012;8.724;2023-10-13T07:46:12;99380.28;;;19.32;100.00
11223;BME280;5668;52.012;8.724;2023-10-13T07:48:39;99374.38;;;19.30;100.00
11223;BME280;5668;52.012;8.724;2023-10-13T07:51:11;99379.88;;;19.35;100.00
11223;BME280;5668;52.012;8.724;2023-10-13T07:53:42;99372.97;;;19.34;100.00
11223;BME280;5668;52.012;8.724;2023-10-13T07:56:09;99370.16;;;19.36;100.00
11223;BME280;5668;52.012;8.724;2023-10-13T07:58:38;99373.03;;;19.41;100.00
11223;BME280;5668;52.012;8.724;2023-10-13T08:01:19;99364.31;;;19.40;100.00
11223;BME280;5668;52.012;8.724;2023-10-13T08:03:47;99374.31;;;19.45;100.00
11223;BME280;5668;52.012;8.724;2023-10-13T08:06:16;99378.41;;;19.47;100.00
11223;BME280;5668;52.012;8.724;2023-10-13T08:08:48;99397.13;;;19.52;100.00
11223;BME280;5668;52.012;8.724;2023-10-13T08:11:19;99380.56;;;19.58;100.00
11223;BME280;5668;52.012;8.724;2023-10-13T08:13:58;99381.56;;;19.57;100.00
11223;BME280;5668;52.012;8.724;2023-10-13T08:16:29;99389.72;;;19.62;100.00
11223;BME280;5668;52.012;8.724;2023-10-13T08:19:12;99389.16;;;19.67;100.00
11223;BME280;5668;52.012;8.724;2023-10-13T08:21:41;99382.50;;;19.71;100.00
11223;BME280;5668;52.012;8.724;2023-10-13T08:24:15;99387.78;;;19.71;100.00
11223;BME280;5668;52.012;8.724;2023-10-13T08:26:51;99387.97;;;19.69;100.00
11223;BME280;5668;52.012;8.724;2023-10-13T08:29:41;99376.22;;;19.72;100.00
11223;BME280;5668;52.012;8.724;2023-10-13T08:32:32;99378.84;;;19.72;100.00
11223;BME280;5668;52.012;8.724;2023-10-13T08:35:13;99382.94;;;19.75;100.00
11223;BME280;5668;52.012;8.724;2023-10-13T08:37:52;99383.19;;;19.80;100.00
11223;BME280;5668;52.012;8.724;2023-10-13T08:40:31;99387.09;;;19.84;100.00
11223;BME280;5668;52.012;8.724;2023-10-13T08:43:32;99369.69;;;19.89;100.00
11223;BME280;5668;52.012;8.724;2023-10-13T08:46:10;99358.19;;;19.97;100.00
11223;BME280;5668;52.012;8.724;2023-10-13T08:48:57;99350.50;;;20.02;100.00
11223;BME280;5668;52.012;8.724;2023-10-13T08:51:40;99359.69;;;20.06;100.00
11223;BME280;5668;52.012;8.724;2023-10-13T08:54:13;99353.00;;;20.10;100.00
11223;BME280;5668;52.012;8.724;2023-10-13T08:56:59;99350.38;;;20.10;100.00
11223;BME280;5668;52.012;8.724;2023-10-13T08:59:32;99347.59;;;20.18;100.00
11223;BME280;5668;52.012;8.724;2023-10-13T09:02:15;99347.22;;;20.21;100.00
11223;BME280;5668;52.012;8.724;2023-10-13T09:04:45;99332.44;;;20.27;100.00
11223;BME280;5668;52.012;8.724;2023-10-13T09:07:11;99331.84;;;20.31;100.00
11223;BME280;5668;52.012;8.724;2023-10-13T09:09:49;99335.34;;;20.38;100.00
11223;BME280;5668;52.012;8.724;2023-10-13T09:12:26;99331.34;;;20.42;100.00
11223;BME280;5668;52.012;8.724;2023-10-13T09:15:07;99315.09;;;20.45;100.00
11223;BME280;5668;52.012;8.724;2023-10-13T09:17:45;99316.75;;;20.53;100.00
11223;BME280;5668;52.012;8.724;2023-10-13T09:20:30;99307.47;;;20.64;100.00
11223;BME280;5668;52.012;8.724;2023-10-13T09:23:09;99309.13;;;20.71;100.00
11223;BME280;5668;52.012;8.724;2023-10-13T09:25:39;99296.56;;;20.80;100.00
11223;BME280;5668;52.012;8.724;2023-10-13T09:28:20;99287.84;;;20.86;100.00
11223;BME280;5668;52.012;8.724;2023-10-13T09:30:48;99278.50;;;20.90;100.00
11223;BME280;5668;52.012;8.724;2023-10-13T09:33:21;99270.22;;;21.00;100.00
11223;BME280;5668;52.012;8.724;2023-10-13T09:35:56;99274.78;;;21.52;100.00
11223;BME280;5668;52.012;8.724;2023-10-13T09:38:25;99275.16;;;21.36;100.00
11223;BME280;5668;52.012;8.724;2023-10-13T09:40:52;99271.13;;;21.27;100.00
11223;BME280;5668;52.012;8.724;2023-10-13T09:43:23;99260.75;;;21.25;100.00
11223;BME280;5668;52.012;8.724;2023-10-13T09:45:51;99252.81;;;21.25;100.00
11223;BME280;5668;52.012;8.724;2023-10-13T09:48:32;99246.91;;;21.30;100.00
11223;BME280;5668;52.012;8.724;2023-10-13T09:51:02;99251.19;;;21.31;100.00
11223;BME280;5668;52.012;8.724;2023-10-13T09:53:35;99238.59;;;21.33;100.00
11223;BME280;5668;52.012;8.724;2023-10-13T09:56:09;99236.56;;;21.35;100.00
11223;BME280;5668;52.012;8.724;2023-10-13T09:58:46;99242.63;;;21.35;100.00
11223;BME280;5668;52.012;8.724;2023-10-13T10:01:22;99225.16;;;21.54;100.00
11223;BME280;5668;52.012;8.724;2023-10-13T10:04:07;99237.75;;;21.45;100.00
11223;BME280;5668;52.012;8.724;2023-10-13T10:06:36;99220.06;;;21.46;100.00
11223;BME280;5668;52.012;8.724;2023-10-13T10:09:10;99229.63;;;21.47;100.00
11223;BME280;5668;52.012;8.724;2023-10-13T10:15:03;99237.38;;;21.55;100.00
11223;BME280;5668;52.012;8.724;2023-10-13T10:17:39;99220.06;;;21.59;100.00
11223;BME280;5668;52.012;8.724;2023-10-13T10:20:09;99212.53;;;21.62;100.00
11223;BME280;5668;52.012;8.724;2023-10-13T10:22:56;99218.22;;;21.66;100.00
11223;BME280;5668;52.012;8.724;2023-10-13T10:25:29;99222.50;;;21.67;100.00
11223;BME280;5668;52.012;8.724;2023-10-13T10:28:02;99208.88;;;21.70;100.00
11223;BME280;5668;52.012;8.724;2023-10-13T10:30:33;99225.53;;;21.77;100.00
11223;BME280;5668;52.012;8.724;2023-10-13T10:33:02;99218.00;;;21.87;100.00
11223;BME280;5668;52.012;8.724;2023-10-13T10:35:34;99210.88;;;21.94;100.00
11223;BME280;5668;52.012;8.724;2023-10-13T10:38:10;99195.38;;;22.05;100.00
11223;BME280;5668;52.012;8.724;2023-10-13T10:40:51;99196.97;;;22.12;100.00
11223;BME280;5668;52.012;8.724;2023-10-13T10:43:26;99185.56;;;22.18;99.86
11223;BME280;5668;52.012;8.724;2023-10-13T10:45:55;99192.44;;;22.26;99.71
11223;BME280;5668;52.012;8.724;2023-10-13T10:48:27;99187.34;;;22.31;98.50
11223;BME280;5668;52.012;8.724;2023-10-13T10:51:00;99190.34;;;22.41;97.82
11223;BME280;5668;52.012;8.724;2023-10-13T10:53:35;99184.22;;;22.47;97.63
11223;BME280;5668;52.012;8.724;2023-10-13T10:56:10;99177.47;;;22.51;97.07
11223;BME280;5668;52.012;8.724;2023-10-13T10:59:03;99176.41;;;22.59;97.10
11223;BME280;5668;52.012;8.724;2023-10-13T11:01:32;99169.44;;;22.64;97.00
11223;BME280;5668;52.012;8.724;2023-10-13T11:04:09;99155.56;;;22.69;94.64
11223;BME280;5668;52.012;8.724;2023-10-13T11:06:46;99150.63;;;22.79;93.47
11223;BME280;5668;52.012;8.724;2023-10-13T11:09:15;99151.38;;;22.86;92.57
11223;BME280;5668;52.012;8.724;2023-10-13T11:12:09;99158.25;;;22.94;90.40
11223;BME280;5668;52.012;8.724;2023-10-13T11:14:41;99152.88;;;23.07;89.83
11223;BME280;5668;52.012;8.724;2023-10-13T11:17:11;99141.41;;;23.13;88.87
11223;BME280;5668;52.012;8.724;2023-10-13T11:19:44;99137.81;;;23.26;90.20
11223;BME280;5668;52.012;8.724;2023-10-13T11:22:13;99132.47;;;23.32;89.48
11223;BME280;5668;52.012;8.724;2023-10-13T11:24:58;99144.19;;;23.43;88.13
11223;BME280;5668;52.012;8.724;2023-10-13T11:27:31;99126.00;;;23.46;86.50
11223;BME280;5668;52.012;8.724;2023-10-13T11:30:22;99133.06;;;23.59;86.75
11223;BME280;5668;52.012;8.724;2023-10-13T11:33:03;99127.22;;;23.69;86.23
11223;BME280;5668;52.012;8.724;2023-10-13T11:35:32;99124.06;;;23.78;86.33
11223;BME280;5668;52.012;8.724;2023-10-13T11:38:13;99116.00;;;23.85;86.95
11223;BME280;5668;52.012;8.724;2023-10-13T11:40:42;99115.88;;;23.80;82.24
11223;BME280;5668;52.012;8.724;2023-10-13T11:43:10;99120.88;;;23.88;83.15
11223;BME280;5668;52.012;8.724;2023-10-13T11:45:41;99108.56;;;23.93;83.66
11223;BME280;5668;52.012;8.724;2023-10-13T11:48:21;99117.47;;;23.99;83.98
11223;BME280;5668;52.012;8.724;2023-10-13T11:51:04;99100.97;;;23.97;82.67
11223;BME280;5668;52.012;8.724;2023-10-13T11:53:33;99103.16;;;24.00;81.34
11223;BME280;5668;52.012;8.724;2023-10-13T11:56:03;99104.75;;;23.89;77.25
11223;BME280;5668;52.012;8.724;2023-10-13T11:58:34;99099.34;;;23.96;79.34
11223;BME280;5668;52.012;8.724;2023-10-13T12:01:01;99101.41;;;23.94;77.76
11223;BME280;5668;52.012;8.724;2023-10-13T12:03:47;99100.50;;;24.00;79.07
11223;BME280;5668;52.012;8.724;2023-10-13T12:06:33;99092.13;;;24.03;79.08
11223;BME280;5668;52.012;8.724;2023-10-13T12:09:13;99077.94;;;24.09;78.56
11223;BME280;5668;52.012;8.724;2023-10-13T12:12:06;99076.31;;;24.08;75.92
11223;BME280;5668;52.012;8.724;2023-10-13T12:14:34;99079.91;;;24.14;76.20
11223;BME280;5668;52.012;8.724;2023-10-13T12:17:04;99065.38;;;24.16;76.36
11223;BME280;5668;52.012;8.724;2023-10-13T12:19:36;99072.09;;;24.19;75.77
11223;BME280;5668;52.012;8.724;2023-10-13T12:22:05;99063.53;;;24.17;76.44
11223;BME280;5668;52.012;8.724;2023-10-13T12:24:35;99057.38;;;24.05;73.02
11223;BME280;5668;52.012;8.724;2023-10-13T12:27:10;99054.63;;;24.11;75.04
11223;BME280;5668;52.012;8.724;2023-10-13T12:29:46;99047.69;;;24.10;75.54
11223;BME280;5668;52.012;8.724;2023-10-13T12:32:14;99040.06;;;24.02;74.60
11223;BME280;5668;52.012;8.724;2023-10-13T12:34:47;99036.00;;;24.00;74.60
11223;BME280;5668;52.012;8.724;2023-10-13T12:37:26;99032.69;;;24.04;75.46
11223;BME280;5668;52.012;8.724;2023-10-13T12:40:18;99035.56;;;24.03;74.95
11223;BME280;5668;52.012;8.724;2023-10-13T12:43:04;99021.69;;;24.01;75.30
11223;BME280;5668;52.012;8.724;2023-10-13T12:45:50;99026.19;;;24.00;74.69
11223;BME280;5668;52.012;8.724;2023-10-13T12:48:36;99015.72;;;24.05;75.68
11223;BME280;5668;52.012;8.724;2023-10-13T12:51:22;99008.78;;;24.04;74.89
11223;BME280;5668;52.012;8.724;2023-10-13T12:54:07;99005.09;;;24.05;75.35
11223;BME280;5668;52.012;8.724;2023-10-13T12:56:41;99014.22;;;24.09;75.56
11223;BME280;5668;52.012;8.724;2023-10-13T12:59:10;99005.22;;;24.10;75.06
11223;BME280;5668;52.012;8.724;2023-10-13T13:01:40;99001.97;;;24.08;75.83
11223;BME280;5668;52.012;8.724;2023-10-13T13:04:09;99007.75;;;24.05;75.49
11223;BME280;5668;52.012;8.724;2023-10-13T13:06:44;99007.38;;;24.02;75.25
11223;BME280;5668;52.012;8.724;2023-10-13T13:09:12;98997.91;;;24.06;75.33
11223;BME280;5668;52.012;8.724;2023-10-13T13:11:39;98999.19;;;24.03;75.06
11223;BME280;5668;52.012;8.724;2023-10-13T13:14:07;99001.63;;;24.05;74.18
11223;BME280;5668;52.012;8.724;2023-10-13T13:16:36;98985.34;;;24.01;73.50
11223;BME280;5668;52.012;8.724;2023-10-13T13:19:05;98988.81;;;24.02;72.72
11223;BME280;5668;52.012;8.724;2023-10-13T13:21:37;98995.94;;;24.01;71.90
11223;BME280;5668;52.012;8.724;2023-10-13T13:24:05;98988.91;;;24.07;71.98
11223;BME280;5668;52.012;8.724;2023-10-13T13:26:37;98983.97;;;24.10;71.99
11223;BME280;5668;52.012;8.724;2023-10-13T13:29:07;98979.47;;;24.11;70.93
11223;BME280;5668;52.012;8.724;2023-10-13T13:31:37;98972.44;;;24.16;70.75
11223;BME280;5668;52.012;8.724;2023-10-13T13:34:09;98979.38;;;24.17;71.16
11223;BME280;5668;52.012;8.724;2023-10-13T13:36:38;98977.06;;;24.09;70.45
11223;BME280;5668;52.012;8.724;2023-10-13T13:39:10;98964.22;;;24.06;70.11
11223;BME280;5668;52.012;8.724;2023-10-13T13:41:37;98970.59;;;24.05;69.79
11223;BME280;5668;52.012;8.724;2023-10-13T13:44:05;98972.06;;;24.01;68.75
11223;BME280;5668;52.012;8.724;2023-10-13T13:46:41;98952.00;;;24.05;70.08
11223;BME280;5668;52.012;8.724;2023-10-13T13:49:09;98940.09;;;23.96;68.68